createdAt,value
2018-12-22T00:02:09.662Z,98.08
2018-12-22T00:04:43.075Z,98.45
2018-12-22T00:07:17.046Z,98.45
2018-12-22T00:09:53.571Z,98.45
2018-12-22T00:12:30.356Z,98.18
2018-12-22T00:15:08.546Z,97.93
2018-12-22T00:17:41.622Z,97.78
2018-12-22T00:20:15.256Z,97.50
2018-12-22T00:22:48.819Z,97.53
2018-12-22T00:25:25.071Z,97.43
2018-12-22T00:27:57.255Z,98.17
2018-12-22T00:30:33.508Z,97.60
2018-12-22T00:33:06.467Z,97.59
2018-12-22T00:35:42.711Z,96.85
2018-12-22T00:38:16.430Z,96.71
2018-12-22T00:40:49.620Z,96.97
2018-12-22T00:43:26.805Z,96.77
2018-12-22T00:46:03.063Z,96.88
2018-12-22T00:48:39.714Z,97.65
2018-12-22T00:51:16.151Z,97.57
2018-12-22T00:53:48.409Z,97.01
2018-12-22T00:56:25.184Z,97.49
2018-12-22T00:59:02.210Z,98.14
2018-12-22T01:01:38.979Z,98.02
2018-12-22T01:04:17.743Z,98.35
2018-12-22T01:06:55.285Z,98.79
2018-12-22T01:09:29.032Z,98.20
2018-12-22T01:12:01.274Z,97.98
2018-12-22T01:14:38.386Z,97.83
2018-12-22T01:17:15.771Z,98.10
2018-12-22T01:19:52.652Z,98.08
2018-12-22T01:22:25.435Z,98.29
2018-12-22T01:25:04.084Z,98.53
2018-12-22T01:27:41.172Z,98.18
2018-12-22T01:30:18.358Z,98.72
2018-12-22T01:32:52.659Z,98.30
2018-12-22T01:35:26.198Z,97.69
2018-12-22T01:38:03.050Z,98.20
2018-12-22T01:40:40.132Z,98.01
2018-12-22T01:43:14.233Z,97.96
2018-12-22T01:45:47.048Z,97.66
2018-12-22T01:48:19.671Z,97.62
2018-12-22T01:50:52.633Z,97.68
2018-12-22T01:53:25.758Z,97.80
2018-12-22T01:56:01.857Z,97.55
2018-12-22T01:58:34.704Z,97.46
2018-12-22T02:01:07.756Z,96.50
2018-12-22T02:03:44.968Z,96.80
2018-12-22T02:06:23.697Z,96.64
2018-12-22T02:08:56.253Z,97.22
2018-12-22T02:11:30.258Z,97.41
2018-12-22T02:14:02.584Z,97.45
2018-12-22T02:16:35.518Z,96.97
2018-12-22T02:19:12.073Z,97.03
2018-12-22T02:21:50.208Z,97.27
2018-12-22T02:24:23.482Z,96.97
2018-12-22T02:26:56.226Z,97.79
2018-12-22T02:29:33.222Z,97.59
2018-12-22T02:32:06.764Z,97.83
2018-12-22T02:34:39.139Z,98.10
2018-12-22T02:37:16.428Z,98.01
2018-12-22T02:39:49.292Z,97.45
2018-12-22T02:42:22.682Z,97.56
2018-12-22T02:44:55.549Z,97.50
2018-12-22T02:47:28.628Z,97.50
2018-12-22T02:50:00.007Z,97.22
2018-12-22T02:52:32.830Z,97.37
2018-12-22T02:55:06.590Z,97.15
2018-12-22T02:57:39.664Z,97.13
2018-12-22T03:00:12.873Z,97.20
2018-12-22T03:02:47.056Z,97.67
2018-12-22T03:05:19.937Z,97.95
2018-12-22T03:07:54.416Z,97.92
2018-12-22T03:10:27.301Z,97.65
2018-12-22T03:13:00.545Z,97.55
2018-12-22T03:15:34.652Z,97.78
2018-12-22T03:18:07.346Z,97.84
2018-12-22T03:20:39.679Z,97.45
2018-12-22T03:23:12.205Z,97.94
2018-12-22T03:25:45.043Z,98.47
2018-12-22T03:28:23.541Z,97.88
2018-12-22T03:30:57.269Z,98.17
2018-12-22T03:33:30.577Z,98.09
2018-12-22T03:36:03.381Z,98.22
2018-12-22T03:38:36.269Z,97.80
2018-12-22T03:41:11.382Z,98.52
2018-12-22T03:43:45.476Z,98.12
2018-12-22T03:46:18.852Z,98.14
2018-12-22T03:48:51.899Z,97.95
2018-12-22T03:51:28.445Z,98.07
2018-12-22T03:54:01.470Z,98.71
2018-12-22T03:56:34.703Z,98.65
2018-12-22T03:59:12.995Z,98.42
2018-12-22T04:01:43.720Z,98.52
2018-12-22T04:04:16.860Z,98.59
2018-12-22T04:06:49.807Z,98.77
2018-12-22T04:09:23.099Z,98.65
2018-12-22T04:12:00.613Z,98.14
2018-12-22T04:14:33.461Z,99.14
2018-12-22T04:17:06.578Z,99.03
2018-12-22T04:19:40.124Z,98.79
2018-12-22T04:22:12.697Z,99.03
2018-12-22T04:24:48.984Z,98.70
2018-12-22T04:27:22.357Z,98.93
2018-12-22T04:29:55.552Z,98.91
2018-12-22T04:32:28.992Z,98.35
2018-12-22T04:35:01.357Z,98.42
2018-12-22T04:37:33.965Z,98.26
2018-12-22T04:40:10.714Z,98.19
2018-12-22T04:42:41.902Z,98.63
2018-12-22T04:45:15.925Z,98.61
2018-12-22T04:47:54.442Z,98.58
2018-12-22T04:50:28.732Z,98.64
2018-12-22T04:53:06.319Z,98.89
2018-12-22T04:55:41.001Z,98.59
2018-12-22T04:58:15.012Z,99.34
2018-12-22T05:00:48.420Z,98.81
2018-12-22T05:03:21.383Z,98.54
2018-12-22T05:05:53.636Z,98.45
2018-12-22T05:08:26.624Z,98.36
2018-12-22T05:11:05.168Z,97.84
2018-12-22T05:13:37.727Z,97.93
2018-12-22T05:16:14.908Z,98.20
2018-12-22T05:18:48.305Z,97.87
2018-12-22T05:21:21.036Z,98.03
2018-12-22T05:23:58.332Z,97.65
2018-12-22T05:26:34.968Z,97.26
2018-12-22T05:29:11.547Z,97.81
2018-12-22T05:31:44.131Z,97.91
2018-12-22T05:34:17.545Z,97.68
2018-12-22T05:36:54.190Z,97.49
2018-12-22T05:39:27.506Z,97.77
2018-12-22T05:42:00.327Z,98.07
2018-12-22T05:44:37.136Z,98.08
2018-12-22T05:47:14.409Z,97.77
2018-12-22T05:49:47.890Z,97.65
2018-12-22T05:52:24.916Z,97.33
2018-12-22T05:55:02.072Z,96.92
2018-12-22T05:57:40.846Z,96.84
2018-12-22T06:00:17.467Z,97.80
2018-12-22T06:02:50.634Z,97.28
2018-12-22T06:05:23.745Z,97.31
2018-12-22T06:08:00.067Z,97.93
2018-12-22T06:10:33.262Z,97.87
2018-12-22T06:13:06.425Z,97.28
2018-12-22T06:15:39.813Z,96.76
2018-12-22T06:18:12.475Z,96.38
2018-12-22T06:20:47.242Z,96.55
2018-12-22T06:23:19.872Z,96.90
2018-12-22T06:25:53.854Z,96.79
2018-12-22T06:28:27.273Z,96.94
2018-12-22T06:31:00.087Z,97.49
2018-12-22T06:33:33.159Z,97.60
2018-12-22T06:36:10.223Z,97.00
2018-12-22T06:38:42.361Z,96.97
2018-12-22T06:41:18.767Z,97.11
2018-12-22T06:43:55.945Z,97.79
2018-12-22T06:46:32.962Z,97.23
2018-12-22T06:49:09.010Z,97.93
2018-12-22T06:51:41.189Z,98.66
2018-12-22T06:54:14.262Z,98.65
2018-12-22T06:56:47.485Z,99.00
2018-12-22T06:59:23.875Z,98.78
2018-12-22T07:01:57.259Z,98.32
2018-12-22T07:04:30.029Z,98.24
2018-12-22T07:07:02.809Z,97.93
2018-12-22T07:09:35.372Z,97.88
2018-12-22T07:12:08.142Z,97.64
2018-12-22T07:14:45.782Z,97.85
2018-12-22T07:17:18.524Z,97.95
2018-12-22T07:19:51.055Z,98.57
2018-12-22T07:22:24.221Z,98.54
2018-12-22T07:24:57.205Z,98.52
2018-12-22T07:27:33.609Z,98.35
2018-12-22T07:30:08.975Z,97.58
2018-12-22T07:32:41.951Z,97.52
2018-12-22T07:35:18.206Z,96.77
2018-12-22T07:37:53.166Z,97.01
2018-12-22T07:40:29.605Z,96.83
2018-12-22T07:43:06.660Z,96.21
2018-12-22T07:45:44.086Z,95.51
2018-12-22T07:48:16.975Z,94.84
2018-12-22T07:50:50.154Z,95.26
2018-12-22T07:53:21.638Z,95.36
2018-12-22T07:55:55.088Z,94.75
2018-12-22T07:58:28.635Z,95.08
2018-12-22T08:01:05.116Z,94.61
2018-12-22T08:03:35.993Z,95.50
2018-12-22T08:06:08.992Z,95.37
2018-12-22T08:08:40.550Z,95.44
2018-12-22T08:31:23.560Z,92.76
2018-12-22T08:33:56.648Z,91.88
2018-12-22T08:36:31.429Z,91.83
2018-12-22T08:39:08.995Z,91.14
2018-12-22T08:41:43.013Z,90.88
2018-12-22T08:44:16.472Z,89.65
2018-12-22T08:46:53.551Z,89.57
2018-12-22T08:49:27.257Z,88.81
2018-12-22T08:51:58.751Z,88.58
2018-12-22T08:54:32.791Z,87.30
2018-12-22T08:57:09.834Z,86.53
2018-12-22T08:59:46.879Z,86.07
2018-12-22T09:02:20.056Z,85.44
2018-12-22T09:04:53.352Z,85.61
2018-12-22T09:07:26.173Z,85.32
2018-12-22T09:09:58.728Z,84.13
2018-12-22T09:12:31.722Z,84.20
2018-12-22T09:15:05.051Z,83.89
2018-12-22T09:17:42.330Z,82.45
2018-12-22T09:20:20.822Z,81.54
2018-12-22T09:22:53.156Z,80.67
2018-12-22T09:25:26.145Z,81.31
2018-12-22T09:27:59.113Z,82.06
2018-12-22T09:43:08.928Z,83.30
2018-12-22T09:45:42.890Z,82.61
2018-12-22T09:48:19.449Z,82.51
2018-12-22T09:50:53.476Z,83.51
2018-12-22T09:53:24.297Z,84.89
2018-12-22T09:56:00.917Z,84.05
2018-12-22T09:58:34.328Z,83.50
2018-12-22T10:01:09.467Z,83.53
2018-12-22T10:03:42.139Z,82.82
2018-12-22T10:06:14.628Z,82.40
2018-12-22T10:08:45.692Z,82.77
2018-12-22T10:11:19.487Z,81.30
2018-12-22T10:13:52.036Z,81.37
2018-12-22T10:16:28.387Z,82.55
2018-12-22T10:18:58.600Z,82.21
2018-12-22T10:21:31.721Z,81.99
2018-12-22T10:24:08.006Z,80.48
2018-12-22T10:26:41.301Z,81.80
2018-12-22T10:29:12.238Z,80.90
2018-12-22T10:31:43.201Z,80.52
2018-12-22T10:34:16.390Z,79.71
2018-12-22T10:36:48.761Z,80.23
2018-12-22T10:39:22.035Z,80.89
2018-12-22T10:41:53.137Z,78.55
2018-12-22T10:44:30.294Z,77.98
2018-12-22T10:47:03.390Z,78.92
2018-12-22T10:49:39.891Z,79.45
2018-12-22T10:52:12.854Z,78.82
2018-12-22T10:54:45.711Z,78.51
2018-12-22T10:57:18.855Z,79.43
2018-12-22T10:59:51.122Z,80.14
2018-12-22T11:02:23.809Z,80.32
2018-12-22T11:04:56.542Z,79.40
2018-12-22T11:07:28.687Z,80.64
2018-12-22T11:10:01.642Z,80.03
2018-12-22T11:12:38.034Z,80.31
2018-12-22T11:15:15.339Z,80.40
2018-12-22T11:17:51.954Z,78.97
2018-12-22T11:20:22.479Z,77.30
2018-12-22T11:22:55.648Z,75.94
2018-12-22T11:25:29.199Z,76.31
2018-12-22T11:28:02.715Z,76.33
2018-12-22T11:30:41.976Z,75.92
2018-12-22T11:33:14.676Z,75.37
2018-12-22T11:35:52.516Z,75.07
2018-12-22T11:38:25.351Z,74.26
2018-12-22T11:40:58.428Z,74.74
2018-12-22T11:43:37.006Z,75.64
2018-12-22T11:49:49.336Z,74.20
2018-12-22T11:52:20.309Z,73.74
2018-12-22T11:54:53.997Z,72.75
2018-12-22T11:57:27.055Z,72.00
2018-12-22T12:00:00.360Z,73.59
2018-12-22T12:02:33.620Z,74.64
2018-12-22T12:05:11.792Z,73.95
2018-12-22T12:07:44.431Z,73.50
2018-12-22T12:10:17.581Z,73.15
2018-12-22T12:12:54.965Z,72.86
2018-12-22T12:15:45.220Z,74.86
2018-12-22T12:19:32.366Z,74.28
2018-12-22T12:22:05.072Z,73.53
2018-12-22T12:24:42.760Z,72.70
2018-12-22T12:27:20.163Z,72.28
2018-12-22T12:29:53.174Z,70.49
2018-12-22T12:32:29.979Z,70.07
2018-12-22T12:35:09.815Z,68.66
2018-12-22T12:37:43.630Z,68.11
2018-12-22T12:40:16.069Z,68.77
2018-12-22T12:42:47.438Z,67.14
2018-12-22T12:45:20.613Z,67.13
2018-12-22T12:47:53.611Z,67.32
2018-12-22T12:50:26.423Z,66.51
2018-12-22T12:52:59.493Z,66.70
2018-12-22T12:55:36.054Z,66.82
2018-12-22T12:58:09.409Z,66.54
2018-12-22T13:00:42.757Z,67.16
2018-12-22T13:03:15.919Z,68.43
2018-12-22T13:05:48.413Z,70.30
2018-12-22T13:08:22.558Z,71.64
2018-12-22T13:10:55.475Z,70.96
2018-12-22T13:13:52.644Z,68.70
2018-12-22T13:16:26.295Z,66.98
2018-12-22T13:18:57.446Z,67.79
2018-12-22T13:21:30.278Z,66.43
2018-12-22T13:24:03.470Z,65.98
2018-12-22T13:26:37.195Z,66.82
2018-12-22T13:29:10.801Z,66.19
2018-12-22T13:31:44.781Z,67.24
2018-12-22T13:34:18.487Z,67.63
2018-12-22T13:36:49.481Z,67.53
2018-12-22T13:39:26.635Z,68.75
2018-12-22T13:42:02.376Z,67.87
2018-12-22T13:44:36.126Z,67.11
2018-12-22T13:47:09.250Z,68.01
2018-12-22T13:49:41.960Z,68.73
2018-12-22T13:52:14.155Z,68.74
2018-12-22T13:54:47.446Z,68.69
2018-12-22T13:57:24.022Z,68.45
2018-12-22T13:59:59.431Z,68.80
2018-12-22T14:02:36.499Z,69.11
2018-12-22T14:05:19.054Z,68.77
2018-12-22T14:07:56.679Z,69.90
2018-12-22T14:10:34.089Z,70.11
2018-12-22T14:13:06.801Z,69.85
2018-12-22T14:15:52.609Z,70.32
2018-12-22T14:18:54.776Z,70.32
2018-12-22T14:21:26.483Z,70.40
2018-12-22T14:24:18.037Z,70.57
2018-12-22T14:26:51.300Z,72.83
2018-12-22T14:29:24.006Z,73.78
2018-12-22T14:32:00.875Z,73.67
2018-12-22T14:36:44.430Z,74.41
2018-12-22T14:39:17.571Z,76.94
2018-12-22T14:41:50.681Z,77.25
2018-12-22T14:44:24.485Z,78.34
2018-12-22T14:46:54.800Z,80.06
2018-12-22T14:49:27.441Z,79.83
2018-12-22T14:52:00.546Z,79.73
2018-12-22T14:54:37.396Z,80.14
2018-12-22T14:57:11.963Z,80.89
2018-12-22T14:59:45.783Z,81.06
2018-12-22T15:02:18.738Z,81.21
2018-12-22T15:04:51.454Z,81.74
2018-12-22T15:07:23.506Z,82.42
2018-12-22T15:09:57.936Z,83.22
2018-12-22T15:12:28.955Z,83.77
2018-12-22T15:15:01.941Z,84.09
2018-12-22T15:17:35.095Z,83.74
2018-12-22T15:20:13.395Z,84.20
2018-12-22T15:22:46.349Z,83.98
2018-12-22T15:25:19.850Z,84.33
2018-12-22T15:27:52.835Z,83.98
2018-12-22T15:30:25.775Z,84.61
2018-12-22T15:33:02.086Z,84.91
2018-12-22T15:35:34.376Z,85.62
2018-12-22T15:38:08.718Z,87.44
2018-12-22T15:40:43.355Z,87.32
2018-12-22T15:43:16.941Z,87.53
2018-12-22T15:45:49.449Z,87.54
2018-12-22T15:48:22.544Z,87.54
2018-12-22T15:50:55.732Z,87.97
2018-12-22T15:53:30.780Z,88.45
2018-12-22T15:56:03.881Z,88.66
2018-12-22T15:58:36.572Z,88.80
2018-12-22T16:01:07.645Z,89.73
2018-12-22T16:03:45.780Z,88.86
2018-12-22T16:06:27.312Z,89.37
2018-12-22T16:09:06.612Z,90.17
2018-12-22T16:11:39.426Z,90.15
2018-12-22T16:14:12.531Z,89.91
2018-12-22T16:16:54.531Z,89.69
2018-12-22T16:19:28.067Z,90.01
2018-12-22T16:22:00.979Z,90.99
2018-12-22T16:24:37.406Z,91.06
2018-12-22T16:27:10.873Z,90.34
2018-12-22T16:29:45.639Z,90.31
2018-12-22T16:32:19.587Z,90.61
2018-12-22T16:34:52.679Z,90.49
2018-12-22T16:37:29.026Z,90.17
2018-12-22T16:40:02.196Z,91.72
2018-12-22T16:42:34.443Z,91.46
2018-12-22T16:45:10.731Z,91.37
2018-12-22T16:47:47.395Z,91.81
2018-12-22T16:50:20.133Z,91.84
2018-12-22T16:52:54.180Z,91.63
2018-12-22T16:55:27.999Z,91.10
2018-12-22T16:58:06.701Z,91.44
2018-12-22T17:00:50.768Z,90.74
2018-12-22T17:03:23.390Z,91.03
2018-12-22T17:16:03.172Z,94.14
2018-12-22T17:18:33.561Z,95.01
2018-12-22T17:21:33.925Z,95.11
2018-12-22T17:24:18.517Z,95.41
2018-12-22T17:26:50.659Z,95.13
2018-12-22T17:29:23.454Z,94.82
2018-12-22T17:31:57.248Z,94.70
2018-12-22T17:34:29.661Z,94.31
2018-12-22T17:37:02.616Z,94.21
2018-12-22T17:39:36.796Z,94.09
2018-12-22T17:42:10.209Z,94.28
2018-12-22T17:44:43.477Z,94.29
2018-12-22T17:47:16.203Z,94.22
2018-12-22T17:49:49.285Z,93.89
2018-12-22T17:52:22.051Z,94.16
2018-12-22T17:54:53.334Z,94.42
2018-12-22T17:57:26.733Z,94.84
2018-12-22T17:59:59.869Z,94.54
2018-12-22T18:02:36.069Z,94.53
2018-12-22T18:05:10.456Z,94.06
2018-12-22T18:07:43.182Z,93.79
2018-12-22T18:10:14.426Z,92.91
2018-12-22T18:12:47.702Z,92.11
2018-12-22T18:15:22.802Z,91.20
2018-12-22T18:17:55.043Z,90.44
2018-12-22T18:20:28.036Z,89.85
2018-12-22T18:23:01.249Z,89.21
2018-12-22T18:25:34.378Z,89.11
2018-12-22T18:28:06.661Z,88.93
2018-12-22T18:30:39.429Z,88.65
2018-12-22T18:33:11.819Z,88.28
2018-12-22T18:35:44.434Z,88.01
2018-12-22T18:38:17.158Z,87.74
2018-12-22T18:40:49.364Z,87.29
2018-12-22T18:43:22.360Z,87.26
2018-12-22T18:45:55.408Z,87.06
2018-12-22T18:48:32.335Z,86.73
2018-12-22T18:51:06.057Z,86.30
2018-12-22T18:53:39.905Z,86.24
2018-12-22T18:56:16.173Z,85.79
2018-12-22T18:58:54.143Z,85.98
2018-12-22T19:01:27.500Z,86.18
2018-12-22T19:04:04.697Z,86.23
2018-12-22T19:06:36.956Z,85.80
2018-12-22T19:09:15.675Z,86.30
2018-12-22T19:11:48.717Z,86.40
2018-12-22T19:14:25.008Z,86.57
2018-12-22T19:17:01.294Z,86.59
2018-12-22T19:19:34.499Z,86.82
2018-12-22T19:22:07.459Z,86.98
2018-12-22T19:24:38.602Z,86.83
2018-12-22T19:27:16.623Z,86.40
2018-12-22T19:29:48.843Z,86.64
2018-12-22T19:32:21.959Z,86.63
2018-12-22T19:34:55.481Z,86.67
2018-12-22T19:37:28.369Z,86.94
2018-12-22T19:40:02.320Z,87.15
2018-12-22T19:42:34.939Z,86.69
2018-12-22T19:45:08.747Z,86.98
2018-12-22T19:47:45.068Z,86.68
2018-12-22T19:50:18.666Z,87.00
2018-12-22T19:52:49.769Z,86.96
2018-12-22T19:55:22.827Z,87.19
2018-12-22T19:57:54.971Z,87.26
2018-12-22T20:00:29.179Z,87.29
2018-12-22T20:03:02.092Z,87.79
2018-12-22T20:05:34.299Z,87.93
2018-12-22T20:08:06.532Z,87.97
2018-12-22T20:10:38.716Z,88.05
2018-12-22T20:13:11.190Z,87.67
2018-12-22T20:15:44.305Z,87.90
2018-12-22T20:18:16.584Z,87.50
2018-12-22T20:20:49.974Z,86.23
2018-12-22T20:23:22.835Z,85.65
2018-12-22T20:25:55.351Z,84.80
2018-12-22T20:28:29.566Z,83.63
2018-12-22T20:31:05.781Z,81.75
2018-12-22T20:33:38.721Z,81.29
2018-12-22T20:36:16.076Z,80.67
2018-12-22T20:38:48.572Z,80.14
2018-12-22T20:41:19.560Z,79.44
2018-12-22T20:43:52.532Z,79.27
2018-12-22T20:46:22.699Z,79.35
2018-12-22T20:48:54.929Z,79.73
2018-12-22T20:51:32.868Z,79.40
2018-12-22T20:54:09.122Z,79.53
2018-12-22T20:56:42.423Z,80.18
2018-12-22T20:59:15.432Z,80.34
2018-12-22T21:01:51.742Z,80.41
2018-12-22T21:04:28.035Z,80.94
2018-12-22T21:07:01.045Z,81.71
2018-12-22T21:09:32.304Z,81.92
2018-12-22T21:12:05.047Z,82.38
2018-12-22T21:14:35.438Z,81.56
2018-12-22T21:17:06.550Z,80.29
2018-12-22T21:19:39.538Z,80.99
2018-12-22T21:22:13.478Z,82.66
2018-12-22T21:24:45.914Z,83.90
2018-12-22T21:27:23.174Z,84.68
2018-12-22T21:29:53.482Z,84.72
2018-12-22T21:32:30.941Z,85.52
2018-12-22T21:35:04.216Z,86.35
2018-12-22T21:37:37.168Z,86.39
2018-12-22T21:40:10.202Z,86.92
2018-12-22T21:42:43.498Z,87.24
2018-12-22T21:45:16.575Z,87.30
2018-12-22T21:47:49.661Z,87.44
2018-12-22T21:50:22.893Z,87.67
2018-12-22T21:52:56.192Z,87.99
2018-12-22T21:55:28.979Z,87.99
2018-12-22T21:58:01.976Z,88.37
2018-12-22T22:00:38.198Z,89.09
2018-12-22T22:03:15.149Z,88.76
2018-12-22T22:05:46.372Z,89.15
2018-12-22T22:08:22.827Z,88.77
2018-12-22T22:10:54.100Z,89.19
2018-12-22T22:13:27.385Z,89.65
2018-12-22T22:16:00.654Z,90.34
2018-12-22T22:18:31.560Z,90.37
2018-12-22T22:21:08.458Z,90.71
2018-12-22T22:23:41.024Z,90.69
2018-12-22T22:26:17.482Z,90.96
2018-12-22T22:28:50.685Z,91.17
2018-12-22T22:31:23.757Z,91.57
2018-12-22T22:33:56.781Z,91.69
2018-12-22T22:36:29.817Z,91.86
2018-12-22T22:39:04.309Z,92.26
2018-12-22T22:41:40.716Z,92.10
2018-12-22T22:44:13.744Z,92.31
2018-12-22T22:46:46.692Z,92.39
2018-12-22T22:49:20.026Z,92.51
2018-12-22T22:51:56.442Z,92.81
2018-12-22T22:54:28.667Z,93.08
2018-12-22T22:57:04.925Z,93.22
2018-12-22T22:59:41.480Z,93.04
2018-12-22T23:02:14.305Z,92.12
2018-12-22T23:04:54.428Z,92.56
2018-12-22T23:07:27.744Z,92.49
2018-12-22T23:10:00.385Z,93.45
2018-12-22T23:12:33.481Z,92.90
2018-12-22T23:15:11.665Z,93.11
2018-12-22T23:17:43.410Z,93.68
2018-12-22T23:20:16.021Z,95.60
2018-12-22T23:22:49.443Z,96.20
2018-12-22T23:25:27.120Z,96.66
2018-12-22T23:43:03.665Z,91.20
2018-12-22T23:45:36.180Z,92.80
2018-12-22T23:48:13.295Z,93.87
2018-12-22T23:50:46.427Z,94.01
2018-12-22T23:53:19.638Z,94.82
2018-12-22T23:55:52.833Z,94.93
2018-12-22T23:58:25.810Z,95.00
